Time;durP1;ratioP1;P1;durP2;ratioP2;P2;SDS_P1;SDS_P2;PMS_P1;PMS_P2;Temp;Humidity;BMP_temperature;BMP_pressure;BME280_temperature;BME280_humidity;BME280_pressure;Samples;Min_cycle;Max_cycle;Signal;HPM_P1;HPM_P2
2022/01/23 00:02:33;;;;;;;27.25;15.57;;;;;;;;;;10353446;28;20436;-62
2022/01/23 00:07:32;;;;;;;25.77;14.68;;;;;;;;;;10351590;28;20082;-62
2022/01/23 00:12:35;;;;;;;23.38;14.20;;;;;;;;;;10358020;28;20106;-62
2022/01/23 00:17:35;;;;;;;23.58;13.55;;;;;;;;;;10356461;28;20075;-61
2022/01/23 00:22:42;;;;;;;25.05;15.02;;;;;;;;;;10353433;28;20083;-62
2022/01/23 00:33:10;;;;;;;41.65;22.50;;;;;;;;;;10253191;28;20090;-62
2022/01/23 00:38:09;;;;;;;19.90;14.88;;;;;;;;;;10346215;28;20075;-63
2022/01/23 00:43:15;;;;;;;22.17;14.15;;;;;;;;;;10350048;28;20493;-63
2022/01/23 00:48:13;;;;;;;;;;;;;;;;;;10352961;28;20061;-62
2022/01/23 00:53:12;;;;;;;26.33;14.52;;;;;;;;;;10354937;28;19920;-61
2022/01/23 00:58:12;;;;;;;27.58;15.90;;;;;;;;;;10337309;28;20517;-62
2022/01/23 01:03:11;;;;;;;33.30;19.67;;;;;;;;;;10355457;28;20071;-62
2022/01/23 01:08:09;;;;;;;70.05;43.42;;;;;;;;;;10334447;28;20059;-60
2022/01/23 01:13:11;;;;;;;50.65;29.95;;;;;;;;;;10347089;28;20044;-62
2022/01/23 01:34:06;;;;;;;47.00;31.80;;;;;;;;;;10336301;28;20045;-62
2022/01/23 01:39:07;;;;;;;38.72;26.42;;;;;;;;;;10335962;28;20497;-62
2022/01/23 01:44:06;;;;;;;26.52;16.83;;;;;;;;;;10354699;28;20656;-62
2022/01/23 01:49:38;;;;;;;20.77;13.20;;;;;;;;;;10318679;28;20079;-61
2022/01/23 01:54:39;;;;;;;13.00;10.10;;;;;;;;;;10345711;28;20055;-63
2022/01/23 02:00:00;;;;;;;15.85;10.18;;;;;;;;;;10330171;28;20084;-61
2022/01/23 02:10:28;;;;;;;66.72;26.77;;;;;;;;;;10289912;28;20098;-62
2022/01/23 02:53:29;;;;;;;21.42;12.68;;;;;;;;;;10336856;28;20377;-63
2022/01/23 02:58:35;;;;;;;23.38;11.80;;;;;;;;;;10348714;28;20500;-62
2022/01/23 03:03:38;;;;;;;15.43;9.35;;;;;;;;;;10333004;28;20489;-62
2022/01/23 03:09:08;;;;;;;15.55;10.30;;;;;;;;;;10337488;28;20067;-62
2022/01/23 03:14:17;;;;;;;58.88;29.33;;;;;;;;;;10340644;28;20052;-62
2022/01/23 03:24:51;;;;;;;16.75;8.75;;;;;;;;;;10337033;28;20080;-62
2022/01/23 03:29:56;;;;;;;14.40;9.10;;;;;;;;;;10359086;28;20068;-62
2022/01/23 03:34:54;;;;;;;15.77;8.97;;;;;;;;;;10358034;28;20047;-62
2022/01/23 03:39:54;;;;;;;18.00;8.15;;;;;;;;;;10353512;28;20068;-61
2022/01/23 03:45:09;;;;;;;12.40;7.10;;;;;;;;;;10353474;28;20074;-62
2022/01/23 03:50:09;;;;;;;11.18;7.60;;;;;;;;;;10334704;28;20480;-62
2022/01/23 03:55:11;;;;;;;9.43;6.90;;;;;;;;;;10339554;28;20055;-62
2022/01/23 04:00:11;;;;;;;10.45;7.18;;;;;;;;;;10339260;28;20081;-61
2022/01/23 04:05:12;;;;;;;28.30;14.93;;;;;;;;;;10364313;28;20421;-61
2022/01/23 04:10:14;;;;;;;15.27;9.15;;;;;;;;;;10334049;28;20048;-62
2022/01/23 04:15:19;;;;;;;15.07;10.13;;;;;;;;;;10334760;28;20059;-62
2022/01/23 04:47:29;;;;;;;20.98;12.00;;;;;;;;;;10351210;28;20284;-61
2022/01/23 05:03:43;;;;;;;20.52;13.30;;;;;;;;;;10350153;28;20040;-62
2022/01/23 05:08:43;;;;;;;18.58;12.60;;;;;;;;;;10359853;28;20064;-61
2022/01/23 05:13:54;;;;;;;23.45;15.13;;;;;;;;;;10351845;28;20067;-62
2022/01/23 05:18:53;;;;;;;19.38;10.10;;;;;;;;;;10336571;28;20075;-61
2022/01/23 05:23:52;;;;;;;18.27;12.48;;;;;;;;;;10354857;28;20040;-61
2022/01/23 05:28:50;;;;;;;22.88;12.15;;;;;;;;;;10349553;28;20083;-62
2022/01/23 05:33:51;;;;;;;21.90;12.45;;;;;;;;;;10351043;28;20433;-61
2022/01/23 05:38:49;;;;;;;16.58;11.32;;;;;;;;;;10332908;28;20079;-61
2022/01/23 05:43:49;;;;;;;22.92;14.13;;;;;;;;;;10350634;28;20068;-62
2022/01/23 05:48:48;;;;;;;17.92;11.95;;;;;;;;;;10334447;28;20075;-62
2022/01/23 05:54:14;;;;;;;16.92;11.38;;;;;;;;;;10335634;28;20074;-62
2022/01/23 05:59:31;;;;;;;22.20;13.55;;;;;;;;;;10356581;28;20083;-60
2022/01/23 06:04:30;;;;;;;96.95;50.10;;;;;;;;;;10339969;28;20051;-61
2022/01/23 06:09:36;;;;;;;169.63;72.50;;;;;;;;;;10336682;28;20044;-61
2022/01/23 06:14:35;;;;;;;180.35;89.78;;;;;;;;;;10332993;28;20078;-61
2022/01/23 06:19:37;;;;;;;54.92;34.50;;;;;;;;;;10357570;28;20079;-62
2022/01/23 06:24:55;;;;;;;94.13;49.20;;;;;;;;;;10393543;28;20063;-61
2022/01/23 06:30:00;;;;;;;94.40;47.33;;;;;;;;;;10367160;28;20079;-61
2022/01/23 06:34:58;;;;;;;147.43;84.72;;;;;;;;;;10357264;28;20063;-62
2022/01/23 06:39:58;;;;;;;47.08;33.90;;;;;;;;;;10354123;28;20067;-60
2022/01/23 06:45:14;;;;;;;37.53;25.10;;;;;;;;;;10363028;28;20055;-61
2022/01/23 06:50:13;;;;;;;40.42;24.00;;;;;;;;;;10339193;28;20044;-62
2022/01/23 06:55:16;;;;;;;70.13;40.13;;;;;;;;;;10339030;28;20536;-60
2022/01/23 07:00:18;;;;;;;47.20;27.73;;;;;;;;;;10336244;28;20491;-62
2022/01/23 07:05:35;;;;;;;62.58;32.78;;;;;;;;;;10361220;28;20079;-62
2022/01/23 07:10:47;;;;;;;35.38;21.63;;;;;;;;;;10334562;28;20076;-62
2022/01/23 07:16:02;;;;;;;38.92;23.98;;;;;;;;;;10332622;28;20106;-62
2022/01/23 07:21:20;;;;;;;38.53;23.80;;;;;;;;;;10352948;28;20086;-62
2022/01/23 07:26:22;;;;;;;37.63;25.00;;;;;;;;;;10335416;28;20528;-62
2022/01/23 07:31:43;;;;;;;41.13;21.13;;;;;;;;;;10332938;28;20087;-62
2022/01/23 07:36:46;;;;;;;38.47;19.25;;;;;;;;;;10335679;28;20071;-62
2022/01/23 07:42:10;;;;;;;29.13;18.08;;;;;;;;;;10335344;28;20087;-62
2022/01/23 07:47:40;;;;;;;20.30;12.50;;;;;;;;;;10313761;28;20080;-63
2022/01/23 07:52:50;;;;;;;23.25;15.77;;;;;;;;;;10352263;28;20056;-63
2022/01/23 07:58:02;;;;;;;44.47;23.02;;;;;;;;;;10336189;28;20804;-62
2022/01/23 08:03:30;;;;;;;41.55;24.52;;;;;;;;;;10342059;28;20454;-62
2022/01/23 08:08:48;;;;;;;123.22;66.38;;;;;;;;;;10333967;28;20048;-62
2022/01/23 08:13:58;;;;;;;90.32;52.00;;;;;;;;;;10356742;28;20056;-61
2022/01/23 08:18:56;;;;;;;43.28;27.15;;;;;;;;;;10346347;28;20464;-62
2022/01/23 08:23:55;;;;;;;21.20;15.38;;;;;;;;;;10356770;28;20052;-62
2022/01/23 08:28:53;;;;;;;34.92;23.85;;;;;;;;;;10356977;28;20547;-62
2022/01/23 08:33:53;;;;;;;24.25;16.17;;;;;;;;;;10351673;28;20067;-61
2022/01/23 08:38:52;;;;;;;16.38;11.02;;;;;;;;;;10355860;28;20075;-62
2022/01/23 08:43:51;;;;;;;34.03;20.73;;;;;;;;;;10356221;28;20524;-62
2022/01/23 08:48:50;;;;;;;24.30;17.83;;;;;;;;;;10350724;28;20369;-62
2022/01/23 08:53:50;;;;;;;35.47;22.77;;;;;;;;;;10352132;28;20084;-62
2022/01/23 08:58:49;;;;;;;39.17;21.60;;;;;;;;;;10349881;28;20087;-62
2022/01/23 09:03:48;;;;;;;32.58;21.45;;;;;;;;;;10355031;28;20429;-62
2022/01/23 09:08:47;;;;;;;60.25;29.27;;;;;;;;;;10356063;28;20408;-62
2022/01/23 09:13:55;;;;;;;48.97;29.83;;;;;;;;;;10354998;28;20098;-62
2022/01/23 09:18:53;;;;;;;35.20;21.92;;;;;;;;;;10349250;28;20084;-62
2022/01/23 09:23:51;;;;;;;21.50;14.02;;;;;;;;;;10351790;28;20067;-62
2022/01/23 09:28:53;;;;;;;19.85;12.23;;;;;;;;;;10354368;28;20044;-62
2022/01/23 09:33:51;;;;;;;28.75;20.20;;;;;;;;;;10360473;28;20067;-63
2022/01/23 09:38:49;;;;;;;25.98;18.58;;;;;;;;;;10357028;28;20076;-61
2022/01/23 09:43:50;;;;;;;22.65;14.13;;;;;;;;;;10357271;28;20497;-62
2022/01/23 09:48:52;;;;;;;40.00;28.00;;;;;;;;;;10362979;28;20074;-62
2022/01/23 09:53:53;;;;;;;49.55;31.92;;;;;;;;;;10362894;28;20520;-63
2022/01/23 09:58:51;;;;;;;42.33;27.65;;;;;;;;;;10362609;28;20458;-62
2022/01/23 10:03:52;;;;;;;24.35;16.27;;;;;;;;;;10360956;28;20055;-61
2022/01/23 10:08:50;;;;;;;14.45;11.55;;;;;;;;;;10350382;28;20079;-62
2022/01/23 10:13:50;;;;;;;27.80;19.20;;;;;;;;;;10356426;28;20458;-62
2022/01/23 10:18:48;;;;;;;26.45;13.30;;;;;;;;;;10358164;28;20090;-63
2022/01/23 10:23:50;;;;;;;45.78;18.65;;;;;;;;;;10356608;28;20469;-63
2022/01/23 10:28:50;;;;;;;28.25;16.77;;;;;;;;;;10361212;28;20093;-63
2022/01/23 10:33:50;;;;;;;37.92;20.83;;;;;;;;;;10361303;28;20084;-63
2022/01/23 10:38:53;;;;;;;38.17;19.92;;;;;;;;;;10360850;28;20076;-63
2022/01/23 10:49:18;;;;;;;;;;;;;;;;;;10355670;28;20072;-62
2022/01/23 10:54:19;;;;;;;38.72;23.90;;;;;;;;;;10356639;28;19951;-62
2022/01/23 10:59:18;;;;;;;42.47;29.10;;;;;;;;;;10353877;28;20094;-61
2022/01/23 11:04:16;;;;;;;47.38;26.13;;;;;;;;;;10354676;28;20075;-62
2022/01/23 11:09:14;;;;;;;69.25;38.50;;;;;;;;;;10355091;28;20095;-63
2022/01/23 11:19:35;;;;;;;44.10;26.17;;;;;;;;;;10352125;28;20079;-64
2022/01/23 11:24:35;;;;;;;73.00;35.60;;;;;;;;;;10355940;28;20071;-63
2022/01/23 11:29:35;;;;;;;36.35;22.85;;;;;;;;;;10355923;28;20551;-63
2022/01/23 11:34:34;;;;;;;52.80;29.70;;;;;;;;;;10345620;28;20087;-63
2022/01/23 11:39:40;;;;;;;70.70;33.08;;;;;;;;;;10353538;28;20468;-63
2022/01/23 11:55:34;;;;;;;98.55;52.50;;;;;;;;;;10355988;28;20060;-63
2022/01/23 12:00:35;;;;;;;15.73;10.88;;;;;;;;;;10354272;28;20079;-63
2022/01/23 12:05:34;;;;;;;38.95;21.70;;;;;;;;;;10356812;28;20466;-63
2022/01/23 12:10:49;;;;;;;13.10;10.07;;;;;;;;;;10351298;28;20499;-63
2022/01/23 12:21:26;;;;;;;11.55;8.27;;;;;;;;;;10350579;28;20083;-62
2022/01/23 12:26:24;;;;;;;29.73;17.05;;;;;;;;;;10352671;28;20465;-61
2022/01/23 12:31:26;;;;;;;31.08;16.70;;;;;;;;;;10355375;28;20075;-62
2022/01/23 12:36:26;;;;;;;32.10;18.13;;;;;;;;;;10354164;28;20056;-62
2022/01/23 12:41:26;;;;;;;19.50;12.63;;;;;;;;;;10353582;28;20093;-62
2022/01/23 12:46:28;;;;;;;29.23;16.80;;;;;;;;;;10346538;28;20477;-62
2022/01/23 12:51:45;;;;;;;21.08;13.60;;;;;;;;;;10346312;28;20051;-61
2022/01/23 12:56:44;;;;;;;;;;;;;;;;;;10349454;28;20075;-60
2022/01/23 13:01:46;;;;;;;64.25;31.55;;;;;;;;;;10350080;28;19963;-62
2022/01/23 13:06:50;;;;;;;25.75;15.70;;;;;;;;;;10349910;28;20134;-61
2022/01/23 13:12:03;;;;;;;47.28;26.63;;;;;;;;;;10350316;28;20071;-61
2022/01/23 13:17:31;;;;;;;28.02;19.50;;;;;;;;;;10343347;28;20087;-63
2022/01/23 13:28:45;;;;;;;56.85;29.15;;;;;;;;;;10351927;28;20563;-63
2022/01/23 13:33:31;;;;;;;45.03;25.40;;;;;;;;;;10349583;28;20075;-64
2022/01/23 13:38:33;;;;;;;23.70;15.68;;;;;;;;;;10347010;28;20070;-62
2022/01/23 13:59:48;;;;;;;30.30;18.10;;;;;;;;;;10298569;28;20080;-62
2022/01/23 14:04:49;;;;;;;25.67;17.23;;;;;;;;;;10292635;28;20060;-62
2022/01/23 14:09:49;;;;;;;19.60;12.15;;;;;;;;;;10293700;28;20064;-63
2022/01/23 14:14:55;;;;;;;15.10;9.38;;;;;;;;;;10297513;28;20060;-62
2022/01/23 14:19:57;;;;;;;21.30;12.85;;;;;;;;;;10289268;28;20076;-62
2022/01/23 14:25:07;;;;;;;18.73;12.77;;;;;;;;;;10292919;28;20456;-61
2022/01/23 14:30:13;;;;;;;28.87;17.60;;;;;;;;;;10282579;28;20072;-63
2022/01/23 14:35:13;;;;;;;18.55;12.77;;;;;;;;;;10291375;28;20335;-61
2022/01/23 14:40:17;;;;;;;27.48;18.52;;;;;;;;;;10295205;28;20470;-62
2022/01/23 14:45:16;;;;;;;31.08;19.52;;;;;;;;;;10301289;28;20061;-62
2022/01/23 14:50:17;;;;;;;27.42;16.80;;;;;;;;;;10299598;28;20091;-62
2022/01/23 14:55:20;;;;;;;31.75;22.23;;;;;;;;;;10291769;28;20600;-63
2022/01/23 15:00:18;;;;;;;30.05;21.80;;;;;;;;;;10286864;28;20068;-63
2022/01/23 15:05:16;;;;;;;40.08;25.90;;;;;;;;;;10267227;28;20064;-62
2022/01/23 15:10:15;;;;;;;37.75;28.67;;;;;;;;;;10267751;28;20068;-63
2022/01/23 15:15:14;;;;;;;47.50;31.02;;;;;;;;;;10273754;28;20068;-63
2022/01/23 15:20:13;;;;;;;70.65;37.65;;;;;;;;;;10273156;28;20099;-64
2022/01/23 15:25:12;;;;;;;69.35;39.88;;;;;;;;;;10258716;28;20065;-62
2022/01/23 15:30:12;;;;;;;99.78;50.40;;;;;;;;;;10273445;28;20076;-67
2022/01/23 15:35:12;;;;;;;145.77;70.72;;;;;;;;;;10267698;28;20108;-64
2022/01/23 15:40:11;;;;;;;158.05;73.65;;;;;;;;;;10251685;28;20073;-63
2022/01/23 15:45:10;;;;;;;90.15;54.45;;;;;;;;;;10247798;28;20073;-63
2022/01/23 15:50:10;;;;;;;88.25;51.17;;;;;;;;;;10246531;28;20080;-63
2022/01/23 15:55:12;;;;;;;72.78;45.33;;;;;;;;;;10248344;28;20077;-63
2022/01/23 16:00:12;;;;;;;113.07;58.72;;;;;;;;;;10254911;28;20439;-63
2022/01/23 16:05:11;;;;;;;121.22;67.53;;;;;;;;;;10264389;28;20095;-62
2022/01/23 16:10:09;;;;;;;96.70;51.97;;;;;;;;;;10271805;28;20072;-63
2022/01/23 16:15:10;;;;;;;71.85;38.08;;;;;;;;;;10273257;28;20068;-63
2022/01/23 16:20:09;;;;;;;56.17;35.58;;;;;;;;;;10273984;28;20068;-62
2022/01/23 16:25:08;;;;;;;174.32;77.90;;;;;;;;;;10268431;28;20071;-62
2022/01/23 16:30:07;;;;;;;112.00;52.28;;;;;;;;;;10251166;28;20076;-62
2022/01/23 16:35:08;;;;;;;58.60;34.67;;;;;;;;;;10258057;28;20447;-62
2022/01/23 16:40:06;;;;;;;110.38;52.70;;;;;;;;;;10245010;28;20494;-62
2022/01/23 16:45:05;;;;;;;179.40;83.20;;;;;;;;;;10247852;28;20471;-62
2022/01/23 16:50:04;;;;;;;146.07;71.70;;;;;;;;;;10245984;28;20531;-62
2022/01/23 16:55:04;;;;;;;168.80;90.57;;;;;;;;;;10246006;28;20076;-63
2022/01/23 17:00:02;;;;;;;94.93;55.25;;;;;;;;;;10236787;28;20465;-63
2022/01/23 17:05:00;;;;;;;56.40;36.78;;;;;;;;;;10269370;28;20084;-62
2022/01/23 17:09:59;;;;;;;109.75;56.45;;;;;;;;;;10247591;28;20126;-62
2022/01/23 17:14:59;;;;;;;53.25;29.85;;;;;;;;;;10270422;28;20072;-61
2022/01/23 17:19:57;;;;;;;141.52;67.55;;;;;;;;;;10242612;28;20080;-61
2022/01/23 17:24:55;;;;;;;107.13;55.53;;;;;;;;;;10241009;28;20076;-62
2022/01/23 17:29:53;;;;;;;80.05;43.30;;;;;;;;;;10260164;28;20076;-62
2022/01/23 17:34:53;;;;;;;63.40;41.20;;;;;;;;;;10262958;28;20463;-63
2022/01/23 17:39:51;;;;;;;116.53;57.83;;;;;;;;;;10263882;28;20075;-63
2022/01/23 17:44:51;;;;;;;78.85;41.30;;;;;;;;;;10263246;28;20439;-61
2022/01/23 17:49:55;;;;;;;165.73;81.18;;;;;;;;;;10252188;28;20463;-62
2022/01/23 17:54:54;;;;;;;134.80;72.43;;;;;;;;;;10260923;28;20068;-63
2022/01/23 17:59:53;;;;;;;84.93;48.35;;;;;;;;;;10245351;28;20087;-62
2022/01/23 18:04:51;;;;;;;112.90;59.53;;;;;;;;;;10245825;28;20079;-62
2022/01/23 18:09:49;;;;;;;160.13;77.07;;;;;;;;;;10263013;28;20068;-61
2022/01/23 18:14:49;;;;;;;211.30;110.45;;;;;;;;;;10260333;28;20413;-60
2022/01/23 18:19:47;;;;;;;115.70;64.22;;;;;;;;;;10264229;28;20072;-61
2022/01/23 18:24:46;;;;;;;67.90;37.50;;;;;;;;;;10264448;28;20525;-61
2022/01/23 18:29:44;;;;;;;93.78;43.03;;;;;;;;;;10262782;28;20068;-61
2022/01/23 18:34:44;;;;;;;92.22;46.35;;;;;;;;;;10264674;28;20089;-62
2022/01/23 18:39:42;;;;;;;21.27;13.52;;;;;;;;;;10267501;28;20064;-62
2022/01/23 18:44:40;;;;;;;141.93;76.00;;;;;;;;;;10269079;28;20071;-62
2022/01/23 18:49:39;;;;;;;132.25;78.18;;;;;;;;;;10268855;28;20593;-61
2022/01/23 18:54:43;;;;;;;225.77;126.63;;;;;;;;;;10270508;28;20072;-61
2022/01/23 19:00:09;;;;;;;100.85;52.33;;;;;;;;;;10270878;28;20172;-62
2022/01/23 19:05:11;;;;;;;55.95;31.63;;;;;;;;;;10267421;28;20155;-61
2022/01/23 19:10:10;;;;;;;41.88;21.33;;;;;;;;;;10258077;28;20104;-61
2022/01/23 19:15:09;;;;;;;43.17;23.88;;;;;;;;;;10267313;28;20731;-60
2022/01/23 19:20:08;;;;;;;34.45;20.13;;;;;;;;;;10266865;28;20108;-60
2022/01/23 19:25:06;;;;;;;30.92;22.25;;;;;;;;;;10263579;28;20079;-61
2022/01/23 19:30:07;;;;;;;30.50;20.20;;;;;;;;;;10261431;28;20091;-61
2022/01/23 19:35:06;;;;;;;27.45;16.38;;;;;;;;;;10267799;28;20072;-61
2022/01/23 19:40:05;;;;;;;36.13;21.95;;;;;;;;;;10261957;28;20034;-61
2022/01/23 19:45:04;;;;;;;24.75;15.43;;;;;;;;;;10248896;28;20447;-61
2022/01/23 19:50:04;;;;;;;23.52;13.65;;;;;;;;;;10264284;28;20107;-61
2022/01/23 19:55:02;;;;;;;23.77;14.48;;;;;;;;;;10268091;28;20121;-61
2022/01/23 20:00:01;;;;;;;23.60;13.63;;;;;;;;;;10239827;28;20209;-60
2022/01/23 20:05:07;;;;;;;30.48;17.30;;;;;;;;;;10266049;28;20041;-60
2022/01/23 20:10:22;;;;;;;39.58;21.05;;;;;;;;;;10265351;28;20486;-60
2022/01/23 20:15:20;;;;;;;51.22;22.85;;;;;;;;;;10272129;28;20065;-61
2022/01/23 20:20:20;;;;;;;39.72;21.77;;;;;;;;;;10262878;28;20317;-60
2022/01/23 20:25:19;;;;;;;40.88;23.77;;;;;;;;;;10268145;28;20061;-61
2022/01/23 20:30:17;;;;;;;43.55;24.90;;;;;;;;;;10263739;28;20113;-61
2022/01/23 20:35:16;;;;;;;22.88;16.63;;;;;;;;;;10258307;28;20099;-60
2022/01/23 20:40:18;;;;;;;28.55;17.50;;;;;;;;;;10263504;28;20141;-60
2022/01/23 20:45:17;;;;;;;44.00;21.65;;;;;;;;;;10262785;28;20084;-60
2022/01/23 20:50:17;;;;;;;22.95;14.30;;;;;;;;;;10264404;28;20069;-59
2022/01/23 20:55:17;;;;;;;21.85;14.77;;;;;;;;;;10264407;28;20073;-59
2022/01/23 21:00:16;;;;;;;24.73;14.65;;;;;;;;;;10262858;28;20459;-59
2022/01/23 21:05:14;;;;;;;26.02;15.68;;;;;;;;;;10260405;28;20071;-60
2022/01/23 21:10:13;;;;;;;20.50;12.32;;;;;;;;;;10264672;28;20471;-60
2022/01/23 21:15:38;;;;;;;17.05;12.48;;;;;;;;;;10260926;28;20067;-61
2022/01/23 21:20:42;;;;;;;22.27;13.43;;;;;;;;;;10251573;28;20182;-60
2022/01/23 21:41:41;;;;;;;21.95;13.45;;;;;;;;;;10268478;28;20096;-60
2022/01/23 21:46:41;;;;;;;26.23;15.52;;;;;;;;;;10265773;28;20057;-60
2022/01/23 21:51:39;;;;;;;34.30;18.02;;;;;;;;;;10270129;28;20083;-61
2022/01/23 21:56:38;;;;;;;25.25;14.15;;;;;;;;;;10269474;28;20073;-60
2022/01/23 22:01:36;;;;;;;22.63;15.13;;;;;;;;;;10264167;28;20137;-59
2022/01/23 22:06:56;;;;;;;21.50;14.60;;;;;;;;;;10262334;28;20079;-60
2022/01/23 22:12:15;;;;;;;19.05;12.10;;;;;;;;;;10264791;28;20087;-61
2022/01/23 22:17:13;;;;;;;23.83;13.75;;;;;;;;;;10272285;28;20069;-61
2022/01/23 22:22:55;;;;;;;19.13;12.07;;;;;;;;;;10276796;28;20053;-60
2022/01/23 22:27:51;;;;;;;16.58;10.13;;;;;;;;;;10269775;28;20068;-61
2022/01/23 22:32:49;;;;;;;19.90;12.65;;;;;;;;;;10277561;28;20072;-61
2022/01/23 22:37:55;;;;;;;20.30;11.95;;;;;;;;;;10273857;28;20064;-61
2022/01/23 22:42:53;;;;;;;31.00;15.80;;;;;;;;;;10277965;28;20140;-60
2022/01/23 22:47:52;;;;;;;18.70;12.55;;;;;;;;;;10262968;28;20052;-61
2022/01/23 22:52:51;;;;;;;26.55;15.57;;;;;;;;;;10277612;28;20087;-61
2022/01/23 22:57:50;;;;;;;21.10;12.38;;;;;;;;;;10277132;28;20088;-60
2022/01/23 23:02:48;;;;;;;18.38;12.50;;;;;;;;;;10276444;28;20163;-59
2022/01/23 23:07:46;;;;;;;15.90;11.85;;;;;;;;;;10250945;28;20045;-60
2022/01/23 23:12:46;;;;;;;20.23;12.85;;;;;;;;;;10235010;28;20499;-60
2022/01/23 23:17:45;;;;;;;35.30;20.27;;;;;;;;;;10248786;28;20068;-60
2022/01/23 23:22:43;;;;;;;55.28;32.55;;;;;;;;;;10252229;28;20069;-61
2022/01/23 23:27:44;;;;;;;29.30;17.92;;;;;;;;;;10272924;28;20545;-61
2022/01/23 23:32:44;;;;;;;22.80;14.05;;;;;;;;;;10275006;28;20072;-61
2022/01/23 23:37:43;;;;;;;21.48;14.88;;;;;;;;;;10249886;28;20121;-59
2022/01/23 23:42:48;;;;;;;24.02;14.88;;;;;;;;;;10249117;28;20442;-60
2022/01/23 23:47:46;;;;;;;;;;;;;;;;;;10250913;28;20494;-60
2022/01/23 23:52:49;;;;;;;32.33;17.90;;;;;;;;;;10251456;28;19972;-60
2022/01/23 23:57:49;;;;;;;25.35;14.35;;;;;;;;;;10250465;28;20111;-60
